Sandersville, Georgia
Current Conditions -  °F | °C
As of 4:35 AM on Monday 24 Nov 2014 (Local Time) from KOKZ Reporting Station
Overcast Overcast  
Wind Chill: 64°   Ceiling: 1100
Heat Index: 64°   Visibility: 10mi
Dew Point: 63°   Wind: 0mph
Humidity: 96%   Direction: NA
Pressure: 29.82"   Gusts: NA
Location:  32.98°N, 82.81°W
Report Text: KOKZ 240935Z AUTO 00000KT 10SM OVC011 18/17 A2982 RMK AO2 T01760170
Loading
Personal Weather Stations






























Interactive Weather Map New forecast layout! Learn more

10-Day Weather Forecast

Advertisements
Track Severe Weather on mobile